Time;durP1;ratioP1;P1;durP2;ratioP2;P2;SDS_P1;SDS_P2;PMS_P1;PMS_P2;Temp;Humidity;BMP_temperature;BMP_pressure;BME280_temperature;BME280_humidity;BME280_pressure;Samples;Min_cycle;Max_cycle;Signal;HPM_P1;HPM_P2
2022/04/25 00:00:18;;;;;;;15.13;11.73;;;13.70;53.20;;;;;;5097546;27;20446;-89
2022/04/25 00:02:46;;;;;;;17.63;12.03;;;13.70;53.10;;;;;;5089292;27;20473;-90
2022/04/25 00:05:15;;;;;;;17.87;12.20;;;13.70;53.20;;;;;;5066565;28;20447;-89
2022/04/25 00:07:45;;;;;;;19.70;13.90;;;13.60;53.40;;;;;;5090094;27;20518;-89
2022/04/25 00:10:14;;;;;;;15.67;11.00;;;13.60;53.20;;;;;;5073065;28;20435;-89
2022/04/25 00:12:41;;;;;;;19.40;12.40;;;13.60;52.80;;;;;;5097187;27;20783;-89
2022/04/25 00:15:11;;;;;;;17.20;11.77;;;13.60;52.60;;;;;;5098135;27;20463;-89
2022/04/25 00:17:38;;;;;;;20.33;12.90;;;13.60;52.60;;;;;;5086436;27;20516;-89
2022/04/25 00:20:08;;;;;;;20.33;12.43;;;13.30;53.20;;;;;;5100980;27;20984;-89
2022/04/25 00:22:37;;;;;;;19.17;12.50;;;13.10;53.60;;;;;;5099900;27;20459;-87
2022/04/25 00:25:08;;;;;;;17.60;11.40;;;13.10;53.70;;;;;;5081874;27;20539;-89
2022/04/25 00:27:38;;;;;;;21.50;13.50;;;13.10;53.90;;;;;;5085904;27;20503;-90
2022/04/25 00:30:08;;;;;;;20.33;13.47;;;13.00;53.60;;;;;;5079999;27;20439;-89
2022/04/25 00:32:39;;;;;;;21.67;15.70;;;12.90;54.00;;;;;;5086785;27;20515;-89
2022/04/25 00:35:09;;;;;;;26.13;16.60;;;12.90;54.10;;;;;;5082898;27;20459;-91
2022/04/25 00:37:37;;;;;;;23.40;15.83;;;12.80;55.00;;;;;;5082081;27;20452;-89
2022/04/25 00:40:09;;;;;;;22.77;14.23;;;12.90;54.50;;;;;;5098530;27;20492;-88
2022/04/25 00:42:39;;;;;;;22.73;14.80;;;12.90;53.80;;;;;;5065901;27;20556;-90
2022/04/25 00:45:11;;;;;;;24.67;14.70;;;12.90;53.30;;;;;;5088507;27;20449;-89
2022/04/25 00:47:40;;;;;;;23.80;13.13;;;12.90;53.40;;;;;;5087183;28;20808;-89
2022/04/25 00:50:09;;;;;;;24.90;14.67;;;12.90;53.60;;;;;;5087356;27;21025;-89
2022/04/25 00:52:37;;;;;;;19.80;13.90;;;12.90;53.90;;;;;;5097602;27;20463;-89
2022/04/25 00:55:10;;;;;;;22.20;13.20;;;12.90;54.50;;;;;;5093670;28;20871;-89
2022/04/25 00:57:38;;;;;;;21.30;13.20;;;12.90;54.30;;;;;;5087680;27;20439;-89
2022/04/25 01:00:08;;;;;;;21.97;13.80;;;12.90;55.00;;;;;;5067006;27;20478;-89
2022/04/25 01:02:37;;;;;;;22.97;13.07;;;12.90;55.00;;;;;;5082010;28;20810;-88
2022/04/25 01:05:05;;;;;;;24.80;14.23;;;13.00;55.00;;;;;;5087921;27;20820;-89
2022/04/25 01:07:38;;;;;;;22.27;14.93;;;12.90;55.40;;;;;;5103958;28;20443;-89
2022/04/25 01:10:10;;;;;;;24.50;13.70;;;12.80;55.30;;;;;;5095627;28;20434;-89
2022/04/25 01:12:40;;;;;;;21.80;14.27;;;12.30;56.60;;;;;;5096695;27;20458;-91
2022/04/25 01:15:11;;;;;;;26.50;14.97;;;12.00;57.70;;;;;;5088313;27;20790;-89
2022/04/25 01:17:40;;;;;;;28.07;16.70;;;11.50;58.70;;;;;;5080805;27;20519;-89
2022/04/25 01:20:10;;;;;;;25.50;15.73;;;11.70;58.80;;;;;;5094854;27;20485;-89
2022/04/25 01:22:42;;;;;;;32.07;14.93;;;12.00;58.20;;;;;;5116177;27;20553;-88
2022/04/25 01:28:01;;;;;;;32.10;16.37;;;11.70;59.30;;;;;;5061824;28;20435;-89
2022/04/25 01:30:31;;;;;;;33.70;16.13;;;12.00;59.10;;;;;;5081116;28;20513;-89
2022/04/25 01:32:59;;;;;;;50.80;16.73;;;11.90;58.60;;;;;;5071905;28;20466;-89
2022/04/25 01:35:28;;;;;;;68.77;17.60;;;11.90;57.90;;;;;;5089556;28;20486;-89
2022/04/25 01:37:56;;;;;;;36.40;16.10;;;12.00;58.20;;;;;;5070981;28;20438;-89
2022/04/25 01:40:26;;;;;;;73.93;17.67;;;11.80;58.90;;;;;;5080995;28;20448;-88
2022/04/25 01:42:56;;;;;;;81.97;15.70;;;12.00;58.20;;;;;;5073309;28;20473;-89
2022/04/25 01:45:25;;;;;;;117.43;16.63;;;11.90;58.10;;;;;;5079238;28;20439;-89
2022/04/25 01:47:54;;;;;;;49.07;16.57;;;11.60;58.70;;;;;;5084095;28;20461;-89
2022/04/25 01:50:23;;;;;;;54.60;15.20;;;11.50;59.20;;;;;;5070140;28;21055;-86
2022/04/25 01:52:51;;;;;;;107.67;17.90;;;11.40;59.20;;;;;;5096967;27;20487;-88
2022/04/25 01:55:21;;;;;;;43.13;15.50;;;11.60;59.40;;;;;;5090890;28;20435;-89
2022/04/25 01:57:51;;;;;;;89.70;18.30;;;11.70;58.80;;;;;;5085006;27;20453;-88
2022/04/25 02:00:21;;;;;;;33.07;16.90;;;11.60;58.50;;;;;;5102319;27;20447;-89
2022/04/25 02:02:49;;;;;;;113.07;20.97;;;11.30;59.30;;;;;;5084512;27;20458;-89
2022/04/25 02:05:18;;;;;;;90.40;20.53;;;11.40;59.40;;;;;;5108176;27;20442;-89
2022/04/25 02:07:46;;;;;;;47.23;17.20;;;11.10;60.10;;;;;;5075683;27;20960;-89
2022/04/25 02:10:15;;;;;;;30.53;17.60;;;11.30;60.10;;;;;;5074350;27;20441;-89
2022/04/25 02:12:43;;;;;;;29.27;17.37;;;11.50;59.50;;;;;;5082208;27;20466;-88
2022/04/25 02:15:14;;;;;;;29.40;17.73;;;11.70;59.20;;;;;;5085875;27;20469;-89
2022/04/25 02:17:44;;;;;;;25.53;15.53;;;12.00;58.50;;;;;;5094855;27;20498;-90
2022/04/25 02:20:13;;;;;;;26.60;16.13;;;12.20;58.10;;;;;;5071684;27;20871;-89
2022/04/25 02:22:42;;;;;;;27.20;17.87;;;12.40;57.50;;;;;;5100196;27;20465;-89
2022/04/25 02:25:11;;;;;;;29.33;17.53;;;12.40;57.70;;;;;;5083360;27;20450;-89
2022/04/25 02:27:40;;;;;;;29.80;15.50;;;12.60;57.30;;;;;;5086103;27;20851;-90
2022/04/25 02:30:10;;;;;;;26.03;15.33;;;12.60;56.90;;;;;;5106209;27;20457;-90
2022/04/25 02:32:40;;;;;;;25.30;14.63;;;12.60;56.70;;;;;;5102454;27;20462;-89
2022/04/25 02:35:09;;;;;;;24.13;15.10;;;12.50;56.40;;;;;;5068598;27;20443;-89
2022/04/25 02:37:37;;;;;;;24.90;14.87;;;12.30;57.00;;;;;;5070388;27;20458;-89
2022/04/25 02:40:07;;;;;;;22.60;15.03;;;12.30;57.10;;;;;;5109158;27;20441;-90
2022/04/25 02:42:35;;;;;;;21.63;14.87;;;12.20;57.40;;;;;;5099991;27;20482;-90
2022/04/25 02:45:04;;;;;;;28.53;16.40;;;12.30;57.30;;;;;;5097738;27;20450;-89
2022/04/25 02:47:34;;;;;;;23.07;15.30;;;12.50;56.90;;;;;;5102077;27;20998;-89
2022/04/25 02:50:04;;;;;;;20.73;14.07;;;12.60;56.60;;;;;;5082334;27;20451;-89
2022/04/25 02:52:32;;;;;;;24.83;15.00;;;12.70;56.20;;;;;;5074584;27;20837;-89
2022/04/25 02:55:00;;;;;;;23.30;15.27;;;12.80;55.90;;;;;;5079308;27;20470;-89
2022/04/25 02:57:28;;;;;;;28.90;17.30;;;12.70;55.50;;;;;;5085835;27;20450;-89
2022/04/25 02:59:58;;;;;;;27.43;16.83;;;12.40;56.40;;;;;;5088642;27;20445;-89
2022/04/25 03:02:28;;;;;;;26.23;16.03;;;12.50;56.50;;;;;;5103162;27;20559;-89
2022/04/25 03:04:56;;;;;;;24.37;15.57;;;12.40;56.30;;;;;;5080974;27;20533;-89
2022/04/25 03:07:26;;;;;;;25.37;15.63;;;12.50;56.70;;;;;;5087141;27;20444;-89
2022/04/25 03:09:55;;;;;;;27.10;15.90;;;12.60;56.30;;;;;;5099706;27;20461;-88
2022/04/25 03:12:23;;;;;;;28.03;15.70;;;12.70;56.40;;;;;;5072330;27;20470;-87
2022/04/25 03:14:50;;;;;;;22.30;14.90;;;12.70;56.10;;;;;;5099280;27;20441;-88
2022/04/25 03:17:19;;;;;;;23.30;14.30;;;12.60;55.70;;;;;;5098933;27;20451;-89
2022/04/25 03:19:49;;;;;;;27.20;15.80;;;12.30;56.00;;;;;;5096617;27;20438;-88
2022/04/25 03:22:18;;;;;;;26.40;15.23;;;11.80;56.80;;;;;;5073484;27;20466;-89
2022/04/25 03:24:47;;;;;;;49.77;26.50;;;12.10;57.30;;;;;;5079149;27;20453;-89
2022/04/25 03:27:15;;;;;;;50.13;26.10;;;12.10;56.50;;;;;;5088440;27;20519;-90
2022/04/25 03:29:44;;;;;;;66.37;33.60;;;12.10;57.00;;;;;;5085455;27;20431;-89
2022/04/25 03:32:12;;;;;;;27.07;16.20;;;12.30;56.90;;;;;;5101227;27;20469;-89
2022/04/25 03:34:42;;;;;;;23.93;14.90;;;12.40;56.30;;;;;;5080354;27;20477;-90
2022/04/25 03:37:11;;;;;;;25.97;15.47;;;12.50;56.50;;;;;;5072589;27;20997;-90
2022/04/25 03:39:40;;;;;;;28.37;17.50;;;12.60;56.40;;;;;;5099150;27;20783;-91
2022/04/25 03:42:09;;;;;;;25.10;16.63;;;12.60;55.80;;;;;;5089193;27;20459;-90
2022/04/25 03:44:39;;;;;;;25.17;15.23;;;12.70;56.00;;;;;;5095343;28;20456;-89
2022/04/25 03:47:10;;;;;;;24.23;15.70;;;12.70;56.20;;;;;;5090148;27;20511;-91
2022/04/25 03:49:38;;;;;;;26.70;17.23;;;12.70;56.00;;;;;;5085500;27;20446;-89
2022/04/25 03:52:08;;;;;;;28.50;16.20;;;12.70;55.90;;;;;;5105934;27;20463;-89
2022/04/25 03:57:24;;;;;;;25.00;14.90;;;12.80;55.60;;;;;;5113857;27;20574;-87
2022/04/25 03:59:52;;;;;;;24.30;14.97;;;12.80;55.30;;;;;;5099860;27;20441;-90
2022/04/25 04:02:21;;;;;;;21.53;14.13;;;12.80;55.40;;;;;;5078325;27;20463;-90
2022/04/25 04:04:49;;;;;;;22.13;13.90;;;12.80;55.70;;;;;;5064652;27;20825;-90
2022/04/25 04:07:18;;;;;;;24.33;14.43;;;12.70;55.70;;;;;;5071006;27;20644;-90
2022/04/25 04:09:47;;;;;;;24.80;15.73;;;12.70;55.50;;;;;;5080534;27;20450;-89
2022/04/25 04:12:16;;;;;;;21.97;15.60;;;12.70;55.40;;;;;;5086009;27;20472;-91
2022/04/25 04:14:45;;;;;;;26.70;16.03;;;12.80;55.60;;;;;;5095276;27;20454;-88
2022/04/25 04:17:14;;;;;;;22.00;14.67;;;12.80;55.70;;;;;;5090235;27;20550;-89
2022/04/25 04:19:43;;;;;;;23.47;15.07;;;12.80;55.70;;;;;;5064751;27;20450;-89
2022/04/25 04:22:11;;;;;;;21.10;12.93;;;12.90;55.90;;;;;;5080981;27;20469;-89
2022/04/25 04:24:39;;;;;;;24.83;14.27;;;12.80;55.90;;;;;;5084101;27;20442;-88
2022/04/25 04:27:07;;;;;;;25.73;15.73;;;12.90;55.90;;;;;;5070808;27;20524;-91
2022/04/25 04:29:36;;;;;;;21.97;14.27;;;12.90;55.80;;;;;;5088116;27;21111;-90
2022/04/25 04:32:06;;;;;;;22.57;13.87;;;12.90;55.70;;;;;;5095848;27;20464;-90
2022/04/25 04:34:36;;;;;;;26.03;14.70;;;12.90;55.60;;;;;;5092826;27;20446;-91
2022/04/25 04:37:04;;;;;;;24.80;14.80;;;12.90;55.80;;;;;;5084670;27;20552;-90
2022/04/25 04:39:33;;;;;;;24.73;17.10;;;12.90;55.90;;;;;;5094691;27;20439;-90
2022/04/25 04:42:04;;;;;;;26.97;16.00;;;12.90;56.30;;;;;;5071575;27;20471;-90
2022/04/25 04:44:33;;;;;;;31.00;18.60;;;12.90;56.40;;;;;;5072835;27;20443;-90
2022/04/25 04:47:01;;;;;;;31.90;17.97;;;12.90;56.20;;;;;;5068557;27;20454;-90
2022/04/25 04:49:31;;;;;;;32.67;18.63;;;12.80;56.70;;;;;;5091424;27;20479;-89
2022/04/25 04:51:59;;;;;;;32.40;18.43;;;12.80;56.70;;;;;;5078812;28;20463;-89
2022/04/25 04:54:29;;;;;;;35.60;18.60;;;12.80;56.70;;;;;;5085513;27;20454;-89
2022/04/25 04:56:57;;;;;;;37.20;20.30;;;12.80;56.60;;;;;;5094839;27;20450;-91
2022/04/25 04:59:24;;;;;;;30.30;19.23;;;12.70;57.00;;;;;;5080122;28;20431;-89
2022/04/25 05:01:53;;;;;;;32.23;18.83;;;12.70;57.00;;;;;;5106656;27;20755;-89
2022/04/25 05:04:21;;;;;;;32.13;18.23;;;12.80;57.10;;;;;;5085675;28;20446;-90
2022/04/25 05:06:49;;;;;;;43.33;25.40;;;12.80;57.20;;;;;;5099386;27;20437;-89
2022/04/25 05:09:17;;;;;;;34.07;20.80;;;12.80;57.60;;;;;;5093973;27;20469;-90
2022/04/25 05:11:46;;;;;;;40.87;25.07;;;12.60;57.20;;;;;;5086775;27;20848;-89
2022/04/25 05:14:14;;;;;;;40.77;25.97;;;12.60;57.60;;;;;;5086297;27;20545;-90
2022/04/25 05:16:43;;;;;;;32.10;20.60;;;12.70;57.70;;;;;;5107939;27;20477;-89
2022/04/25 05:19:11;;;;;;;43.63;20.23;;;12.60;57.20;;;;;;5083526;28;20450;-89
2022/04/25 05:21:43;;;;;;;32.87;18.73;;;12.60;57.50;;;;;;5074082;27;21024;-89
2022/04/25 05:24:12;;;;;;;32.70;18.73;;;12.60;57.80;;;;;;5100023;28;22552;-90
2022/04/25 05:26:40;;;;;;;31.63;20.60;;;12.70;57.80;;;;;;5109267;27;20498;-90
2022/04/25 05:29:10;;;;;;;35.40;20.10;;;12.80;57.70;;;;;;5090015;28;20526;-89
2022/04/25 05:31:39;;;;;;;34.87;20.27;;;12.70;57.80;;;;;;5077027;28;20897;-90
2022/04/25 05:34:09;;;;;;;30.30;19.90;;;12.60;58.10;;;;;;5084925;28;20487;-90
2022/04/25 05:36:36;;;;;;;32.93;20.27;;;12.80;57.80;;;;;;5073729;28;21414;-90
2022/04/25 05:39:05;;;;;;;29.10;18.50;;;13.00;57.60;;;;;;5071684;28;20816;-90
2022/04/25 05:41:37;;;;;;;30.53;18.10;;;13.00;57.30;;;;;;5066720;28;20450;-90
2022/04/25 05:44:06;;;;;;;30.47;19.10;;;12.90;57.70;;;;;;5105093;28;20544;-90
2022/04/25 05:46:34;;;;;;;28.73;18.33;;;12.80;57.80;;;;;;5086602;28;20784;-90
2022/04/25 05:52:05;;;;;;;27.93;17.90;;;13.10;57.50;;;;;;5096342;28;20450;-90
2022/04/25 05:54:34;;;;;;;30.30;17.43;;;13.10;57.30;;;;;;5095256;28;20447;-89
2022/04/25 05:57:06;;;;;;;24.80;16.17;;;12.90;57.80;;;;;;5081691;28;20469;-90
2022/04/25 05:59:35;;;;;;;26.70;17.23;;;12.80;58.00;;;;;;5097888;28;20451;-89
2022/04/25 06:02:03;;;;;;;25.53;16.60;;;13.00;57.90;;;;;;5072265;27;20461;-89
2022/04/25 06:04:31;;;;;;;24.57;15.97;;;13.00;57.50;;;;;;5081501;27;20441;-89
2022/04/25 06:07:00;;;;;;;25.27;16.30;;;13.10;57.70;;;;;;5098366;28;20450;-89
2022/04/25 06:09:31;;;;;;;26.60;16.27;;;13.30;57.50;;;;;;5083852;28;20451;-89
2022/04/25 06:12:03;;;;;;;25.23;16.70;;;13.40;57.10;;;;;;5094284;28;20557;-90
2022/04/25 06:14:31;;;;;;;29.17;17.70;;;13.40;57.20;;;;;;5081603;28;20470;-90
2022/04/25 06:17:00;;;;;;;27.90;17.67;;;13.30;57.30;;;;;;5099261;28;20459;-90
2022/04/25 06:19:28;;;;;;;30.50;19.60;;;13.20;57.60;;;;;;5089205;28;20474;-90
2022/04/25 06:21:56;;;;;;;26.87;15.90;;;13.10;57.90;;;;;;5067607;28;21086;-89
2022/04/25 06:24:26;;;;;;;31.57;17.80;;;12.90;59.00;;;;;;5086377;27;20500;-89
2022/04/25 06:26:55;;;;;;;26.63;16.23;;;13.00;58.30;;;;;;5077573;28;20861;-89
2022/04/25 06:29:25;;;;;;;26.07;16.50;;;13.00;58.10;;;;;;5087236;28;20442;-88
2022/04/25 06:31:55;;;;;;;27.80;17.47;;;13.20;58.10;;;;;;5075673;28;20465;-89
2022/04/25 06:34:24;;;;;;;26.47;16.10;;;13.20;58.00;;;;;;5074137;28;20445;-89
2022/04/25 06:36:52;;;;;;;28.57;16.70;;;13.40;58.00;;;;;;5090841;28;20529;-89
2022/04/25 06:39:20;;;;;;;30.53;18.10;;;13.40;57.30;;;;;;5069561;27;20873;-87
2022/04/25 06:41:48;;;;;;;29.77;18.13;;;13.30;57.50;;;;;;5104089;27;20469;-87
2022/04/25 06:44:16;;;;;;;25.67;15.13;;;13.60;57.40;;;;;;5063794;27;20442;-88
2022/04/25 06:46:45;;;;;;;38.70;20.57;;;13.40;57.60;;;;;;5085557;27;20915;-89
2022/04/25 06:49:24;;;;;;;25.93;16.77;;;13.60;57.60;;;;;;5092291;27;20442;-88
2022/04/25 06:51:53;;;;;;;28.87;17.30;;;13.60;57.50;;;;;;5093791;27;20460;-89
2022/04/25 06:54:21;;;;;;;25.00;17.10;;;13.60;57.40;;;;;;5103080;27;20442;-88
2022/04/25 06:56:49;;;;;;;27.93;17.50;;;13.60;57.30;;;;;;5103942;27;20537;-87
2022/04/25 06:59:16;;;;;;;29.00;17.80;;;13.60;57.60;;;;;;5082876;28;20435;-90
2022/04/25 07:01:48;;;;;;;30.80;18.00;;;13.70;57.80;;;;;;5102057;27;20472;-90
2022/04/25 07:04:17;;;;;;;25.50;17.40;;;13.80;57.30;;;;;;5110052;27;20454;-91
2022/04/25 07:06:47;;;;;;;27.53;18.00;;;13.70;57.70;;;;;;5105990;27;20433;-91
2022/04/25 07:09:15;;;;;;;27.90;18.20;;;13.70;58.20;;;;;;5092048;27;20430;-89
2022/04/25 07:11:45;;;;;;;25.80;18.37;;;13.70;58.30;;;;;;5103473;27;20469;-90
2022/04/25 07:14:15;;;;;;;26.03;16.87;;;14.00;58.30;;;;;;5073687;28;20458;-90
2022/04/25 07:16:45;;;;;;;23.63;16.97;;;14.10;57.80;;;;;;5098567;27;20565;-91
2022/04/25 07:19:14;;;;;;;27.10;16.87;;;14.10;57.80;;;;;;5087566;27;20445;-90
2022/04/25 07:30:00;;;;;;;21.20;15.50;;;14.60;56.60;;;;;;5082371;27;20465;-90
2022/04/25 07:32:30;;;;;;;19.13;15.17;;;14.80;56.90;;;;;;5102882;27;20985;-90
2022/04/25 07:35:01;;;;;;;26.13;16.90;;;14.80;56.70;;;;;;5092124;27;20447;-90
2022/04/25 07:37:33;;;;;;;28.83;17.73;;;14.80;56.30;;;;;;5123836;27;20454;-90
2022/04/25 07:40:02;;;;;;;22.83;14.83;;;14.90;56.40;;;;;;5101757;27;21141;-90
2022/04/25 07:42:31;;;;;;;22.60;16.10;;;14.90;56.80;;;;;;5078106;27;20473;-90
2022/04/25 07:45:00;;;;;;;21.90;14.50;;;14.90;56.80;;;;;;5095812;27;20526;-90
2022/04/25 07:47:32;;;;;;;29.17;15.40;;;15.00;57.00;;;;;;5076001;27;20478;-90
2022/04/25 07:50:02;;;;;;;20.37;14.10;;;15.20;56.40;;;;;;5095735;27;20993;-90
2022/04/25 07:52:30;;;;;;;26.57;15.40;;;15.30;55.60;;;;;;5098274;27;20469;-91
2022/04/25 07:54:59;;;;;;;19.80;15.20;;;15.30;55.80;;;;;;5084622;27;20463;-91
2022/04/25 07:57:27;;;;;;;22.90;16.43;;;15.30;55.60;;;;;;5075020;27;20462;-91
2022/04/25 07:59:58;;;;;;;22.80;15.37;;;15.50;55.20;;;;;;5075246;27;20447;-90
2022/04/25 08:02:27;;;;;;;21.27;14.97;;;15.40;55.80;;;;;;5102541;27;20465;-91
2022/04/25 08:04:55;;;;;;;24.50;15.50;;;15.60;55.60;;;;;;5073401;27;20458;-91
2022/04/25 08:07:25;;;;;;;43.87;34.40;;;15.80;54.90;;;;;;5076973;27;20438;-90
2022/04/25 08:09:54;;;;;;;22.20;15.40;;;15.90;55.30;;;;;;5098209;27;20465;-92
2022/04/25 08:18:06;;;;;;;17.97;13.47;;;16.20;55.20;;;;;;5069064;27;20519;-90
2022/04/25 08:20:38;;;;;;;20.40;14.50;;;16.20;55.20;;;;;;5085981;27;20973;-90
2022/04/25 08:23:11;;;;;;;19.03;13.30;;;16.20;54.90;;;;;;5097398;27;20490;-92
2022/04/25 08:25:41;;;;;;;19.70;13.40;;;16.40;54.30;;;;;;5097991;27;20550;-89
2022/04/25 08:28:10;;;;;;;26.10;16.80;;;16.20;54.20;;;;;;5099376;27;20534;-90
2022/04/25 08:30:40;;;;;;;17.90;13.10;;;16.40;54.20;;;;;;5086076;27;20446;-91
2022/04/25 08:33:08;;;;;;;14.90;11.90;;;16.70;53.80;;;;;;5072228;27;20476;-90
2022/04/25 08:35:36;;;;;;;18.80;13.23;;;16.90;53.90;;;;;;5084171;27;20487;-91
2022/04/25 08:38:05;;;;;;;18.63;11.10;;;16.90;53.30;;;;;;5084196;27;20562;-90
2022/04/25 08:40:36;;;;;;;10.43;9.33;;;16.80;52.30;;;;;;5099856;27;20450;-89
2022/04/25 08:43:06;;;;;;;9.87;7.97;;;16.90;50.60;;;;;;5078865;27;20844;-91
2022/04/25 08:45:35;;;;;;;12.90;9.97;;;17.10;51.00;;;;;;5078628;27;21259;-90
2022/04/25 08:48:04;;;;;;;11.23;9.43;;;17.40;51.40;;;;;;5088850;27;20523;-90
2022/04/25 08:50:33;;;;;;;10.50;8.80;;;17.60;48.60;;;;;;5096280;27;20449;-90
2022/04/25 08:53:01;;;;;;;9.37;8.37;;;17.60;48.70;;;;;;5068415;27;20684;-90
2022/04/25 08:55:32;;;;;;;11.50;9.33;;;17.30;49.10;;;;;;5079803;28;20533;-90
2022/04/25 08:58:04;;;;;;;13.57;8.80;;;17.10;49.30;;;;;;5063076;28;20478;-90
2022/04/25 09:00:33;;;;;;;12.20;9.33;;;16.80;49.90;;;;;;5079485;27;20483;-89
2022/04/25 09:03:01;;;;;;;12.80;9.83;;;16.50;51.10;;;;;;5079319;27;20470;-91
2022/04/25 09:05:29;;;;;;;11.20;8.13;;;16.30;51.70;;;;;;5071741;27;20446;-90
2022/04/25 09:07:59;;;;;;;11.03;8.87;;;16.50;51.20;;;;;;5098084;27;20561;-92
2022/04/25 09:10:28;;;;;;;9.60;8.07;;;16.80;50.70;;;;;;5096211;27;20538;-91
2022/04/25 09:12:58;;;;;;;8.73;7.50;;;17.00;50.00;;;;;;5073675;28;20925;-90
2022/04/25 09:15:28;;;;;;;8.03;7.20;;;17.20;50.40;;;;;;5112081;27;21214;-91
2022/04/25 09:17:57;;;;;;;9.00;7.60;;;17.30;49.10;;;;;;5065333;28;20565;-91
2022/04/25 09:20:27;;;;;;;8.53;7.17;;;17.30;48.50;;;;;;5079720;28;20851;-91
2022/04/25 09:22:58;;;;;;;9.33;8.40;;;17.50;48.40;;;;;;5097565;27;20499;-91
2022/04/25 09:25:26;;;;;;;8.70;7.40;;;17.50;49.30;;;;;;5076227;28;20435;-90
2022/04/25 09:28:08;;;;;;;8.83;6.93;;;17.50;48.70;;;;;;5097044;28;20447;-89
2022/04/25 09:30:37;;;;;;;10.00;7.87;;;17.50;47.70;;;;;;5109721;27;20451;-91
2022/04/25 09:33:22;;;;;;;10.27;6.70;;;17.40;47.60;;;;;;5065326;28;20463;-90
2022/04/25 09:35:54;;;;;;;8.17;6.60;;;17.40;47.50;;;;;;5076036;28;20479;-90
2022/04/25 09:38:30;;;;;;;8.60;6.50;;;17.40;47.40;;;;;;5081682;28;20484;-90
2022/04/25 09:40:59;;;;;;;9.47;7.30;;;17.40;46.80;;;;;;5082750;28;20439;-91
2022/04/25 09:43:30;;;;;;;6.77;5.70;;;17.60;48.10;;;;;;5074807;28;20854;-92
2022/04/25 09:46:04;;;;;;;7.07;6.00;;;17.90;46.30;;;;;;5055243;28;20443;-91
2022/04/25 09:48:34;;;;;;;7.80;7.00;;;18.00;46.60;;;;;;5067650;28;20438;-92
2022/04/25 09:51:07;;;;;;;8.77;6.60;;;18.00;47.20;;;;;;5071691;28;20453;-90
2022/04/25 09:53:43;;;;;;;6.20;5.60;;;18.00;46.20;;;;;;5091262;28;20462;-91
2022/04/25 09:56:17;;;;;;;9.33;6.50;;;18.10;46.80;;;;;;5069887;28;20815;-91
2022/04/25 09:58:59;;;;;;;7.17;5.93;;;18.30;46.70;;;;;;5066576;28;20446;-91
2022/04/25 10:01:29;;;;;;;8.73;6.40;;;18.30;45.10;;;;;;5078757;28;20434;-91
2022/04/25 10:03:57;;;;;;;14.50;9.90;;;18.60;45.70;;;;;;5076983;28;20454;-92
2022/04/25 10:06:28;;;;;;;8.17;5.60;;;19.10;46.00;;;;;;5070420;28;20463;-91
2022/04/25 10:08:56;;;;;;;6.90;6.20;;;19.40;45.30;;;;;;5078379;28;20858;-90
2022/04/25 10:11:29;;;;;;;9.93;6.93;;;19.30;45.70;;;;;;5075146;28;21034;-90
2022/04/25 10:13:58;;;;;;;8.87;6.93;;;19.30;44.10;;;;;;5063951;27;20456;-89
2022/04/25 10:16:26;;;;;;;7.53;6.80;;;19.30;43.70;;;;;;5081469;27;20466;-91
2022/04/25 10:18:57;;;;;;;8.30;5.93;;;19.50;44.00;;;;;;5072792;27;20877;-91
2022/04/25 10:21:29;;;;;;;6.13;5.53;;;19.50;43.30;;;;;;5089610;27;20432;-91
2022/04/25 10:23:58;;;;;;;11.03;7.27;;;19.50;44.20;;;;;;5064969;27;20450;-88
2022/04/25 10:26:27;;;;;;;6.40;5.40;;;19.60;43.70;;;;;;5077952;27;20447;-85
2022/04/25 10:28:56;;;;;;;6.50;5.90;;;19.50;43.50;;;;;;5095432;27;20455;-89
2022/04/25 10:31:28;;;;;;;6.70;5.83;;;19.50;44.50;;;;;;5067096;27;20509;-90
2022/04/25 10:33:59;;;;;;;6.80;6.20;;;19.80;44.00;;;;;;5096345;27;20537;-89
2022/04/25 10:36:44;;;;;;;7.40;6.30;;;20.00;45.10;;;;;;5077865;27;20435;-91
2022/04/25 10:39:14;;;;;;;7.63;5.93;;;20.30;41.90;;;;;;5102356;27;20495;-91
2022/04/25 10:44:56;;;;;;;7.07;5.67;;;20.00;42.60;;;;;;5101192;27;20581;-91
2022/04/25 10:47:25;;;;;;;10.30;6.00;;;20.00;42.70;;;;;;5084840;27;20832;-91
2022/04/25 10:50:09;;;;;;;7.40;6.07;;;19.90;42.70;;;;;;5078823;27;20485;-88
2022/04/25 10:52:54;;;;;;;6.60;6.00;;;20.00;43.10;;;;;;5067061;27;20469;-88
2022/04/25 10:55:26;;;;;;;6.77;5.00;;;19.80;42.80;;;;;;5096760;27;20453;-89
2022/04/25 10:58:20;;;;;;;6.30;5.20;;;19.70;42.90;;;;;;5110408;27;20442;-90
2022/04/25 11:01:06;;;;;;;9.43;5.90;;;19.40;43.00;;;;;;5067209;27;20444;-90
2022/04/25 11:03:35;;;;;;;7.20;5.97;;;18.90;44.30;;;;;;5099455;27;20563;-92
2022/04/25 11:06:07;;;;;;;7.13;5.40;;;19.00;44.80;;;;;;5097575;27;20485;-91
2022/04/25 11:08:53;;;;;;;6.27;5.60;;;19.00;43.80;;;;;;5072131;27;20966;-91
2022/04/25 11:11:23;;;;;;;10.83;5.93;;;19.30;44.00;;;;;;5081285;28;20474;-90
2022/04/25 11:14:16;;;;;;;7.77;5.20;;;19.60;43.50;;;;;;5094425;27;20444;-91
2022/04/25 11:16:59;;;;;;;6.20;5.60;;;19.70;42.80;;;;;;5070949;27;20542;-91
2022/04/25 11:19:44;;;;;;;5.07;4.60;;;19.20;43.50;;;;;;5098521;27;20491;-91
2022/04/25 11:22:31;;;;;;;7.20;6.33;;;19.30;42.90;;;;;;5071758;27;20463;-91
2022/04/25 11:25:19;;;;;;;6.93;5.73;;;19.10;42.70;;;;;;5095721;27;20438;-90
2022/04/25 11:28:01;;;;;;;7.93;5.10;;;19.00;44.30;;;;;;5071005;27;20478;-90
2022/04/25 11:30:31;;;;;;;9.90;5.90;;;19.00;44.20;;;;;;5082097;27;20439;-90
2022/04/25 11:33:03;;;;;;;7.30;5.10;;;19.20;43.80;;;;;;5068337;27;20540;-90
2022/04/25 11:35:31;;;;;;;12.47;8.40;;;19.20;42.50;;;;;;5070062;27;20803;-91
2022/04/25 11:38:02;;;;;;;5.40;4.90;;;19.30;42.50;;;;;;5063269;27;20484;-91
2022/04/25 11:40:31;;;;;;;6.10;5.50;;;19.30;42.80;;;;;;5096214;27;20465;-90
2022/04/25 11:43:03;;;;;;;7.23;5.40;;;19.50;43.00;;;;;;5086082;27;20470;-91
2022/04/25 11:45:32;;;;;;;6.13;5.50;;;19.50;42.90;;;;;;5074063;27;20450;-90
2022/04/25 11:48:01;;;;;;;7.43;6.30;;;19.60;43.00;;;;;;5086968;27;20446;-90
2022/04/25 11:50:30;;;;;;;7.87;6.60;;;19.80;43.90;;;;;;5078542;28;20435;-91
2022/04/25 11:52:59;;;;;;;8.33;7.00;;;20.00;42.90;;;;;;5066824;27;20580;-88
2022/04/25 11:55:38;;;;;;;8.97;7.43;;;19.90;43.60;;;;;;5111872;27;20485;-90
2022/04/25 11:58:07;;;;;;;7.53;6.23;;;20.20;42.90;;;;;;5080374;27;20441;-89
2022/04/25 12:00:36;;;;;;;9.13;6.57;;;19.80;42.60;;;;;;5086132;27;20439;-89
2022/04/25 12:03:05;;;;;;;7.47;5.57;;;19.80;42.50;;;;;;5076555;27;20490;-90
2022/04/25 12:05:33;;;;;;;7.13;6.00;;;19.90;42.90;;;;;;5068364;27;20447;-90
2022/04/25 12:16:34;;;;;;;5.67;5.07;;;21.00;40.10;;;;;;5094521;27;20437;-89
2022/04/25 12:19:08;;;;;;;7.40;5.70;;;20.80;41.00;;;;;;5073992;27;20462;-90
2022/04/25 12:21:37;;;;;;;5.43;4.87;;;21.10;40.40;;;;;;5091567;27;20454;-89
2022/04/25 12:24:06;;;;;;;6.30;5.60;;;21.20;39.90;;;;;;5090947;27;20445;-90
2022/04/25 12:26:36;;;;;;;5.43;4.93;;;20.90;40.50;;;;;;5090428;27;20446;-89
2022/04/25 12:29:11;;;;;;;6.20;5.43;;;20.80;40.20;;;;;;5074791;27;20431;-91
2022/04/25 12:31:46;;;;;;;5.80;5.20;;;20.80;40.30;;;;;;5082804;27;21217;-91
2022/04/25 12:34:16;;;;;;;4.90;4.40;;;20.50;41.00;;;;;;5076544;27;20446;-90
2022/04/25 12:36:54;;;;;;;5.60;4.93;;;20.10;41.90;;;;;;5085080;27;20875;-89
2022/04/25 12:39:24;;;;;;;5.23;4.73;;;20.50;41.50;;;;;;5092940;27;20471;-89
2022/04/25 12:41:57;;;;;;;5.60;5.10;;;20.80;41.90;;;;;;5076560;27;20500;-91
2022/04/25 12:44:27;;;;;;;6.53;5.40;;;21.10;41.70;;;;;;5088595;28;20804;-88
2022/04/25 12:47:03;;;;;;;5.17;4.73;;;20.20;40.60;;;;;;5083025;27;20441;-91
2022/04/25 12:49:34;;;;;;;4.67;4.27;;;19.90;41.40;;;;;;5094573;27;20444;-90
2022/04/25 12:52:05;;;;;;;5.93;5.37;;;19.80;42.50;;;;;;5077141;27;20478;-92
2022/04/25 12:54:40;;;;;;;5.20;4.70;;;19.90;42.30;;;;;;5079889;27;20486;-91
2022/04/25 12:57:13;;;;;;;5.40;4.90;;;19.80;42.80;;;;;;5071004;27;20948;-92
2022/04/25 12:59:43;;;;;;;5.93;5.33;;;19.90;42.80;;;;;;5077933;27;20483;-91
2022/04/25 13:02:14;;;;;;;6.87;4.90;;;20.20;42.60;;;;;;5078999;27;20461;-91
2022/04/25 13:04:53;;;;;;;6.70;5.60;;;20.30;41.90;;;;;;5077246;27;20885;-90
2022/04/25 13:07:24;;;;;;;5.90;5.30;;;20.20;42.00;;;;;;5077795;27;20438;-90
2022/04/25 13:09:55;;;;;;;6.80;6.10;;;20.20;42.60;;;;;;5077049;27;20431;-89
2022/04/25 13:12:25;;;;;;;5.83;5.17;;;20.20;42.30;;;;;;5096306;27;20473;-91
2022/04/25 13:14:52;;;;;;;6.10;5.23;;;20.30;42.10;;;;;;5090822;28;20459;-89
2022/04/25 13:17:20;;;;;;;7.93;5.13;;;20.10;41.90;;;;;;5110967;27;20495;-90
2022/04/25 13:19:49;;;;;;;7.67;6.30;;;20.10;42.20;;;;;;5074434;28;20462;-89
2022/04/25 13:22:17;;;;;;;9.33;6.67;;;20.10;42.90;;;;;;5069916;27;20470;-91